sensor_id;sensor_type;location;lat;lon;timestamp;pressure;altitude;pressure_sealevel;temperature;humidity
58690;BME280;44470;53.206;-6.106;2022-11-20T00:01:27;100360.97;;;19.95;50.72
58690;BME280;44470;53.206;-6.106;2022-11-20T00:03:55;100356.41;;;19.99;50.51
58690;BME280;44470;53.206;-6.106;2022-11-20T00:06:22;100352.88;;;19.98;50.68
58690;BME280;44470;53.206;-6.106;2022-11-20T00:08:55;100360.84;;;20.00;50.61
58690;BME280;44470;53.206;-6.106;2022-11-20T00:11:26;100353.75;;;19.99;50.65
58690;BME280;44470;53.206;-6.106;2022-11-20T00:13:56;100349.31;;;19.99;50.47
58690;BME280;44470;53.206;-6.106;2022-11-20T00:16:28;100358.22;;;19.98;50.73
58690;BME280;44470;53.206;-6.106;2022-11-20T00:18:58;100361.75;;;19.99;50.78
58690;BME280;44470;53.206;-6.106;2022-11-20T00:21:26;100368.94;;;19.97;50.34
58690;BME280;44470;53.206;-6.106;2022-11-20T00:23:54;100357.31;;;19.99;50.56
58690;BME280;44470;53.206;-6.106;2022-11-20T00:26:21;100359.94;;;20.01;50.57
58690;BME280;44470;53.206;-6.106;2022-11-20T00:28:58;100360.84;;;20.00;50.77
58690;BME280;44470;53.206;-6.106;2022-11-20T00:31:24;100365.19;;;20.04;50.43
58690;BME280;44470;53.206;-6.106;2022-11-20T00:33:51;100366.28;;;19.97;50.73
58690;BME280;44470;53.206;-6.106;2022-11-20T00:36:28;100379.59;;;19.98;50.49
58690;BME280;44470;53.206;-6.106;2022-11-20T00:39:15;100393.81;;;19.99;50.68
58690;BME280;44470;53.206;-6.106;2022-11-20T00:41:40;100385.09;;;19.92;50.76
58690;BME280;44470;53.206;-6.106;2022-11-20T00:44:07;100379.69;;;19.95;50.79
58690;BME280;44470;53.206;-6.106;2022-11-20T00:46:33;100356.63;;;19.89;50.75
58690;BME280;44470;53.206;-6.106;2022-11-20T00:48:59;100362.69;;;19.98;50.73
58690;BME280;44470;53.206;-6.106;2022-11-20T00:51:25;100361.75;;;19.99;50.55
58690;BME280;44470;53.206;-6.106;2022-11-20T00:53:51;100360.06;;;19.96;50.54
58690;BME280;44470;53.206;-6.106;2022-11-20T00:56:20;100355.59;;;19.97;50.64
58690;BME280;44470;53.206;-6.106;2022-11-20T00:58:47;100351.16;;;19.96;50.33
58690;BME280;44470;53.206;-6.106;2022-11-20T01:01:36;100351.97;;;19.99;50.65
58690;BME280;44470;53.206;-6.106;2022-11-20T01:04:02;100349.31;;;19.98;50.50
58690;BME280;44470;53.206;-6.106;2022-11-20T01:06:48;100348.41;;;19.99;50.56
58690;BME280;44470;53.206;-6.106;2022-11-20T01:09:14;100341.41;;;19.95;50.57
58690;BME280;44470;53.206;-6.106;2022-11-20T01:11:42;100351.16;;;19.96;50.42
58690;BME280;44470;53.206;-6.106;2022-11-20T01:14:19;100354.72;;;19.96;50.79
58690;BME280;44470;53.206;-6.106;2022-11-20T01:16:47;100340.59;;;19.89;50.39
58690;BME280;44470;53.206;-6.106;2022-11-20T01:19:18;100364.50;;;19.97;50.66
58690;BME280;44470;53.206;-6.106;2022-11-20T01:21:49;100360.84;;;20.00;50.63
58690;BME280;44470;53.206;-6.106;2022-11-20T01:24:20;100369.84;;;19.97;50.58
58690;BME280;44470;53.206;-6.106;2022-11-20T01:27:06;100374.19;;;20.01;50.59
58690;BME280;44470;53.206;-6.106;2022-11-20T01:29:31;100377.63;;;20.05;50.53
58690;BME280;44470;53.206;-6.106;2022-11-20T01:31:57;100385.63;;;20.05;50.51
58690;BME280;44470;53.206;-6.106;2022-11-20T01:34:24;100395.47;;;20.04;50.32
58690;BME280;44470;53.206;-6.106;2022-11-20T01:36:52;100394.56;;;20.04;50.47
58690;BME280;44470;53.206;-6.106;2022-11-20T01:39:27;100396.41;;;20.02;50.24
58690;BME280;44470;53.206;-6.106;2022-11-20T01:41:56;100400.00;;;20.01;50.44
58690;BME280;44470;53.206;-6.106;2022-11-20T01:44:58;100391.16;;;19.99;50.29
58690;BME280;44470;53.206;-6.106;2022-11-20T01:47:42;100394.72;;;19.98;50.61
58690;BME280;44470;53.206;-6.106;2022-11-20T01:50:32;100397.53;;;19.93;50.33
58690;BME280;44470;53.206;-6.106;2022-11-20T01:53:05;100405.47;;;19.96;50.40
58690;BME280;44470;53.206;-6.106;2022-11-20T01:55:41;100402.88;;;19.93;50.25
58690;BME280;44470;53.206;-6.106;2022-11-20T01:58:09;100411.72;;;19.95;50.70
58690;BME280;44470;53.206;-6.106;2022-11-20T02:00:35;100417.06;;;19.95;50.97
58690;BME280;44470;53.206;-6.106;2022-11-20T02:03:22;100429.44;;;19.99;50.12
58690;BME280;44470;53.206;-6.106;2022-11-20T02:06:31;100430.28;;;20.00;50.39
58690;BME280;44470;53.206;-6.106;2022-11-20T02:08:41;100416.31;;;19.88;50.49
58690;BME280;44470;53.206;-6.106;2022-11-20T02:11:07;100417.84;;;19.99;50.40
58690;BME280;44470;53.206;-6.106;2022-11-20T02:13:35;100423.19;;;19.99;50.50
58690;BME280;44470;53.206;-6.106;2022-11-20T02:17:00;100433.03;;;19.98;50.59
58690;BME280;44470;53.206;-6.106;2022-11-20T02:19:33;100430.34;;;19.98;50.69
58690;BME280;44470;53.206;-6.106;2022-11-20T02:22:10;100439.34;;;19.94;50.23
58690;BME280;44470;53.206;-6.106;2022-11-20T02:24:37;100433.97;;;19.96;50.60
58690;BME280;44470;53.206;-6.106;2022-11-20T02:27:13;100448.22;;;19.95;50.74
58690;BME280;44470;53.206;-6.106;2022-11-20T02:29:53;100440.13;;;19.99;50.33
58690;BME280;44470;53.206;-6.106;2022-11-20T02:32:27;100434.03;;;19.93;50.18
58690;BME280;44470;53.206;-6.106;2022-11-20T02:34:54;100448.16;;;19.98;50.69
58690;BME280;44470;53.206;-6.106;2022-11-20T02:37:22;100444.56;;;19.99;50.46
58690;BME280;44470;53.206;-6.106;2022-11-20T02:39:50;100449.06;;;19.98;50.29
58690;BME280;44470;53.206;-6.106;2022-11-20T02:42:17;100461.44;;;20.01;50.52
58690;BME280;44470;53.206;-6.106;2022-11-20T02:44:46;100458.69;;;20.04;50.29
58690;BME280;44470;53.206;-6.106;2022-11-20T02:47:12;100449.00;;;20.00;50.46
58690;BME280;44470;53.206;-6.106;2022-11-20T02:49:38;100438.22;;;20.03;50.09
58690;BME280;44470;53.206;-6.106;2022-11-20T02:52:03;100441.78;;;20.03;50.40
58690;BME280;44470;53.206;-6.106;2022-11-20T02:54:29;100436.63;;;19.97;50.49
58690;BME280;44470;53.206;-6.106;2022-11-20T02:56:55;100427.84;;;19.92;50.12
58690;BME280;44470;53.206;-6.106;2022-11-20T02:59:20;100434.81;;;19.98;50.08
58690;BME280;44470;53.206;-6.106;2022-11-20T03:01:45;100428.75;;;19.88;50.44
58690;BME280;44470;53.206;-6.106;2022-11-20T03:04:11;100450.88;;;19.96;50.31
58690;BME280;44470;53.206;-6.106;2022-11-20T03:06:36;100456.22;;;19.96;50.29
58690;BME280;44470;53.206;-6.106;2022-11-20T03:09:03;100460.66;;;19.96;50.58
58690;BME280;44470;53.206;-6.106;2022-11-20T03:11:29;100459.81;;;19.95;50.43
58690;BME280;44470;53.206;-6.106;2022-11-20T03:13:54;100467.84;;;19.94;50.33
58690;BME280;44470;53.206;-6.106;2022-11-20T03:16:23;100467.78;;;19.97;50.71
58690;BME280;44470;53.206;-6.106;2022-11-20T03:18:52;100480.28;;;19.95;50.58
58690;BME280;44470;53.206;-6.106;2022-11-20T03:21:17;100470.56;;;19.92;50.14
58690;BME280;44470;53.206;-6.106;2022-11-20T03:23:43;100469.59;;;19.95;50.36
58690;BME280;44470;53.206;-6.106;2022-11-20T03:28:46;100490.06;;;19.96;50.57
58690;BME280;44470;53.206;-6.106;2022-11-20T03:31:32;100484.75;;;19.94;50.21
58690;BME280;44470;53.206;-6.106;2022-11-20T03:34:21;100482.13;;;19.93;50.30
58690;BME280;44470;53.206;-6.106;2022-11-20T03:36:47;100472.47;;;19.85;50.29
58690;BME280;44470;53.206;-6.106;2022-11-20T03:39:13;100475.91;;;19.92;50.61
58690;BME280;44470;53.206;-6.106;2022-11-20T03:41:42;100488.34;;;19.93;50.48
58690;BME280;44470;53.206;-6.106;2022-11-20T03:44:10;100490.09;;;19.94;50.55
58690;BME280;44470;53.206;-6.106;2022-11-20T03:46:37;100488.31;;;19.95;50.43
58690;BME280;44470;53.206;-6.106;2022-11-20T03:49:04;100475.84;;;19.94;50.24
58690;BME280;44470;53.206;-6.106;2022-11-20T03:51:32;100478.53;;;19.94;50.32
58690;BME280;44470;53.206;-6.106;2022-11-20T03:54:06;100471.34;;;19.96;50.12
58690;BME280;44470;53.206;-6.106;2022-11-20T03:56:50;100485.63;;;19.95;50.47
58690;BME280;44470;53.206;-6.106;2022-11-20T03:59:22;100483.72;;;20.00;50.45
58690;BME280;44470;53.206;-6.106;2022-11-20T04:01:47;100490.91;;;19.98;50.19
58690;BME280;44470;53.206;-6.106;2022-11-20T04:04:13;100490.97;;;19.95;50.51
58690;BME280;44470;53.206;-6.106;2022-11-20T04:06:38;100487.38;;;19.96;50.21
58690;BME280;44470;53.206;-6.106;2022-11-20T04:09:05;100486.53;;;19.94;50.06
58690;BME280;44470;53.206;-6.106;2022-11-20T04:11:32;100490.97;;;19.95;50.24
58690;BME280;44470;53.206;-6.106;2022-11-20T04:14:23;100482.13;;;19.93;50.47
58690;BME280;44470;53.206;-6.106;2022-11-20T04:16:54;100487.50;;;19.89;50.18
58690;BME280;44470;53.206;-6.106;2022-11-20T04:19:21;100482.16;;;19.91;50.44
58690;BME280;44470;53.206;-6.106;2022-11-20T04:21:49;100475.84;;;19.94;50.15
58690;BME280;44470;53.206;-6.106;2022-11-20T04:24:15;100474.94;;;19.95;50.17
58690;BME280;44470;53.206;-6.106;2022-11-20T04:26:42;100473.25;;;19.91;50.21
58690;BME280;44470;53.206;-6.106;2022-11-20T04:29:10;100461.66;;;19.93;50.02
58690;BME280;44470;53.206;-6.106;2022-11-20T04:31:38;100454.59;;;19.89;50.40
58690;BME280;44470;53.206;-6.106;2022-11-20T04:34:05;100465.25;;;19.91;50.33
58690;BME280;44470;53.206;-6.106;2022-11-20T04:36:32;100441.13;;;19.94;50.29
58690;BME280;44470;53.206;-6.106;2022-11-20T04:39:01;100461.59;;;19.95;50.42
58690;BME280;44470;53.206;-6.106;2022-11-20T04:41:34;100460.75;;;19.93;50.11
58690;BME280;44470;53.206;-6.106;2022-11-20T04:44:03;100461.66;;;19.92;50.27
58690;BME280;44470;53.206;-6.106;2022-11-20T04:46:33;100459.06;;;19.87;50.41
58690;BME280;44470;53.206;-6.106;2022-11-20T04:48:59;100467.06;;;19.87;50.52
58690;BME280;44470;53.206;-6.106;2022-11-20T04:51:25;100476.84;;;19.88;50.25
58690;BME280;44470;53.206;-6.106;2022-11-20T04:53:51;100476.81;;;19.89;50.23
58690;BME280;44470;53.206;-6.106;2022-11-20T04:56:16;100476.88;;;19.86;50.22
58690;BME280;44470;53.206;-6.106;2022-11-20T04:58:43;100492.84;;;19.89;50.32
58690;BME280;44470;53.206;-6.106;2022-11-20T05:01:12;100487.50;;;19.89;50.42
58690;BME280;44470;53.206;-6.106;2022-11-20T05:03:44;100495.53;;;19.88;50.37
58690;BME280;44470;53.206;-6.106;2022-11-20T05:06:14;100486.72;;;19.84;50.32
58690;BME280;44470;53.206;-6.106;2022-11-20T05:08:40;100487.66;;;19.83;50.38
58690;BME280;44470;53.206;-6.106;2022-11-20T05:11:15;100482.25;;;19.85;50.24
58690;BME280;44470;53.206;-6.106;2022-11-20T05:13:41;100484.00;;;19.87;50.62
58690;BME280;44470;53.206;-6.106;2022-11-20T05:16:22;100491.16;;;19.85;50.45
58690;BME280;44470;53.206;-6.106;2022-11-20T05:18:49;100477.97;;;19.78;50.28
58690;BME280;44470;53.206;-6.106;2022-11-20T05:21:22;100491.16;;;19.85;50.45
58690;BME280;44470;53.206;-6.106;2022-11-20T05:23:48;100487.66;;;19.83;50.54
58690;BME280;44470;53.206;-6.106;2022-11-20T05:26:17;100498.34;;;19.83;50.24
58690;BME280;44470;53.206;-6.106;2022-11-20T05:28:48;100486.75;;;19.83;50.60
58690;BME280;44470;53.206;-6.106;2022-11-20T05:31:24;100475.31;;;19.78;50.26
58690;BME280;44470;53.206;-6.106;2022-11-20T05:33:49;100484.91;;;19.86;50.51
58690;BME280;44470;53.206;-6.106;2022-11-20T05:36:15;100475.13;;;19.85;50.49
58690;BME280;44470;53.206;-6.106;2022-11-20T05:38:44;100460.19;;;19.77;50.46
58690;BME280;44470;53.206;-6.106;2022-11-20T05:41:24;100475.16;;;19.84;50.39
58690;BME280;44470;53.206;-6.106;2022-11-20T05:43:50;100471.63;;;19.83;50.17
58690;BME280;44470;53.206;-6.106;2022-11-20T05:46:19;100459.22;;;19.81;50.48
58690;BME280;44470;53.206;-6.106;2022-11-20T05:48:47;100445.94;;;19.78;50.43
58690;BME280;44470;53.206;-6.106;2022-11-20T05:51:16;100452.16;;;19.78;50.62
58690;BME280;44470;53.206;-6.106;2022-11-20T05:53:58;100441.47;;;19.78;50.21
58690;BME280;44470;53.206;-6.106;2022-11-20T05:56:27;100438.81;;;19.78;50.28
58690;BME280;44470;53.206;-6.106;2022-11-20T05:58:55;100440.59;;;19.78;50.39
58690;BME280;44470;53.206;-6.106;2022-11-20T06:01:23;100449.56;;;19.75;50.53
58690;BME280;44470;53.206;-6.106;2022-11-20T06:03:52;100446.00;;;19.74;50.46
58690;BME280;44470;53.206;-6.106;2022-11-20T06:06:20;100445.06;;;19.77;50.48
58690;BME280;44470;53.206;-6.106;2022-11-20T06:08:45;100449.50;;;19.77;50.33
58690;BME280;44470;53.206;-6.106;2022-11-20T06:11:24;100442.41;;;19.75;50.60
58690;BME280;44470;53.206;-6.106;2022-11-20T06:13:50;100440.66;;;19.74;50.63
58690;BME280;44470;53.206;-6.106;2022-11-20T06:16:17;100440.66;;;19.76;50.37
58690;BME280;44470;53.206;-6.106;2022-11-20T06:18:44;100437.91;;;19.79;50.18
58690;BME280;44470;53.206;-6.106;2022-11-20T06:21:20;100429.03;;;19.77;50.63
58690;BME280;44470;53.206;-6.106;2022-11-20T06:23:50;100413.19;;;19.71;50.32
58690;BME280;44470;53.206;-6.106;2022-11-20T06:26:25;100424.66;;;19.74;50.57
58690;BME280;44470;53.206;-6.106;2022-11-20T06:28:56;100404.41;;;19.66;50.49
58690;BME280;44470;53.206;-6.106;2022-11-20T06:31:23;100410.53;;;19.69;50.32
58690;BME280;44470;53.206;-6.106;2022-11-20T06:33:49;100405.16;;;19.71;50.52
58690;BME280;44470;53.206;-6.106;2022-11-20T06:36:18;100394.50;;;19.71;50.59
58690;BME280;44470;53.206;-6.106;2022-11-20T06:38:47;100387.41;;;19.70;50.28
58690;BME280;44470;53.206;-6.106;2022-11-20T06:41:19;100382.97;;;19.69;50.60
58690;BME280;44470;53.206;-6.106;2022-11-20T06:43:45;100384.72;;;19.70;50.64
58690;BME280;44470;53.206;-6.106;2022-11-20T06:46:15;100390.06;;;19.70;50.32
58690;BME280;44470;53.206;-6.106;2022-11-20T06:48:48;100400.75;;;19.70;50.31
58690;BME280;44470;53.206;-6.106;2022-11-20T06:51:14;100399.81;;;19.71;50.34
58690;BME280;44470;53.206;-6.106;2022-11-20T06:53:40;100391.00;;;19.67;50.40
58690;BME280;44470;53.206;-6.106;2022-11-20T06:56:08;100396.25;;;19.72;50.59
58690;BME280;44470;53.206;-6.106;2022-11-20T06:58:55;100389.16;;;19.71;50.52
58690;BME280;44470;53.206;-6.106;2022-11-20T07:01:21;100399.84;;;19.69;50.51
58690;BME280;44470;53.206;-6.106;2022-11-20T07:03:50;100399.97;;;19.65;50.59
58690;BME280;44470;53.206;-6.106;2022-11-20T07:06:36;100390.13;;;19.67;50.23
58690;BME280;44470;53.206;-6.106;2022-11-20T07:09:01;100399.06;;;19.66;50.44
58690;BME280;44470;53.206;-6.106;2022-11-20T07:11:27;100387.56;;;19.62;50.44
58690;BME280;44470;53.206;-6.106;2022-11-20T07:13:52;100389.31;;;19.65;50.58
58690;BME280;44470;53.206;-6.106;2022-11-20T07:16:21;100394.66;;;19.65;50.45
58690;BME280;44470;53.206;-6.106;2022-11-20T07:18:48;100392.84;;;19.65;50.63
58690;BME280;44470;53.206;-6.106;2022-11-20T07:21:13;100389.31;;;19.63;50.28
58690;BME280;44470;53.206;-6.106;2022-11-20T07:23:39;100390.97;;;19.69;50.58
58690;BME280;44470;53.206;-6.106;2022-11-20T07:26:11;100383.03;;;19.66;50.67
58690;BME280;44470;53.206;-6.106;2022-11-20T07:28:39;100381.28;;;19.65;50.51
58690;BME280;44470;53.206;-6.106;2022-11-20T07:31:05;100375.06;;;19.64;50.42
58690;BME280;44470;53.206;-6.106;2022-11-20T07:33:32;100378.63;;;19.65;50.53
58690;BME280;44470;53.206;-6.106;2022-11-20T07:36:01;100381.28;;;19.65;50.27
58690;BME280;44470;53.206;-6.106;2022-11-20T07:38:27;100383.00;;;19.67;50.62
58690;BME280;44470;53.206;-6.106;2022-11-20T07:40:58;100390.16;;;19.65;50.02
58690;BME280;44470;53.206;-6.106;2022-11-20T07:43:27;100369.06;;;19.54;50.34
58690;BME280;44470;53.206;-6.106;2022-11-20T07:46:00;100387.59;;;19.60;50.46
58690;BME280;44470;53.206;-6.106;2022-11-20T07:48:26;100397.34;;;19.61;50.55
58690;BME280;44470;53.206;-6.106;2022-11-20T07:50:56;100411.63;;;19.60;50.31
58690;BME280;44470;53.206;-6.106;2022-11-20T07:53:22;100400.91;;;19.62;50.52
58690;BME280;44470;53.206;-6.106;2022-11-20T07:55:49;100392.16;;;19.55;50.26
58690;BME280;44470;53.206;-6.106;2022-11-20T07:58:22;100382.22;;;19.62;50.21
58690;BME280;44470;53.206;-6.106;2022-11-20T08:00:48;100379.59;;;19.60;50.29
58690;BME280;44470;53.206;-6.106;2022-11-20T08:03:13;100373.38;;;19.60;50.37
58690;BME280;44470;53.206;-6.106;2022-11-20T08:05:40;100367.13;;;19.61;50.49
58690;BME280;44470;53.206;-6.106;2022-11-20T08:08:05;100364.47;;;19.59;50.42
58690;BME280;44470;53.206;-6.106;2022-11-20T08:10:32;100366.28;;;19.59;50.31
58690;BME280;44470;53.206;-6.106;2022-11-20T08:12:57;100361.88;;;19.58;50.30
58690;BME280;44470;53.206;-6.106;2022-11-20T08:15:49;100348.69;;;19.50;50.30
58690;BME280;44470;53.206;-6.106;2022-11-20T08:18:19;100380.56;;;19.56;50.29
58690;BME280;44470;53.206;-6.106;2022-11-20T08:20:44;100391.25;;;19.56;50.20
58690;BME280;44470;53.206;-6.106;2022-11-20T08:23:11;100385.00;;;19.57;50.24
58690;BME280;44470;53.206;-6.106;2022-11-20T08:25:40;100372.63;;;19.55;50.44
58690;BME280;44470;53.206;-6.106;2022-11-20T08:28:07;100375.22;;;19.56;50.26
58690;BME280;44470;53.206;-6.106;2022-11-20T08:30:38;100385.91;;;19.56;50.27
58690;BME280;44470;53.206;-6.106;2022-11-20T08:33:07;100379.88;;;19.50;50.34
58690;BME280;44470;53.206;-6.106;2022-11-20T08:35:35;100379.72;;;19.56;50.43
58690;BME280;44470;53.206;-6.106;2022-11-20T08:38:02;100392.09;;;19.58;50.06
58690;BME280;44470;53.206;-6.106;2022-11-20T08:40:30;100383.16;;;19.59;50.15
58690;BME280;44470;53.206;-6.106;2022-11-20T08:42:57;100383.22;;;19.58;50.14
58690;BME280;44470;53.206;-6.106;2022-11-20T08:45:24;100373.56;;;19.52;50.30
58690;BME280;44470;53.206;-6.106;2022-11-20T08:47:49;100378.91;;;19.52;50.44
58690;BME280;44470;53.206;-6.106;2022-11-20T08:50:16;100401.84;;;19.61;50.02
58690;BME280;44470;53.206;-6.106;2022-11-20T08:52:42;100385.06;;;19.54;50.21
58690;BME280;44470;53.206;-6.106;2022-11-20T08:55:09;100396.66;;;19.55;50.37
58690;BME280;44470;53.206;-6.106;2022-11-20T08:57:55;100386.88;;;19.54;50.31
58690;BME280;44470;53.206;-6.106;2022-11-20T09:00:21;100389.63;;;19.51;50.16
58690;BME280;44470;53.206;-6.106;2022-11-20T09:02:48;100393.13;;;19.53;50.17
58690;BME280;44470;53.206;-6.106;2022-11-20T09:05:16;100380.69;;;19.52;50.32
58690;BME280;44470;53.206;-6.106;2022-11-20T09:07:42;100381.56;;;19.52;50.25
58690;BME280;44470;53.206;-6.106;2022-11-20T09:10:08;100370.88;;;19.52;50.47
58690;BME280;44470;53.206;-6.106;2022-11-20T09:12:39;100367.31;;;19.53;50.11
58690;BME280;44470;53.206;-6.106;2022-11-20T09:15:05;100373.56;;;19.52;50.29
58690;BME280;44470;53.206;-6.106;2022-11-20T09:17:32;100369.13;;;19.53;49.94
58690;BME280;44470;53.206;-6.106;2022-11-20T09:19:58;100366.53;;;19.48;50.31
58690;BME280;44470;53.206;-6.106;2022-11-20T09:22:24;100374.47;;;19.51;50.14
58690;BME280;44470;53.206;-6.106;2022-11-20T09:24:51;100370.03;;;19.52;50.34
58690;BME280;44470;53.206;-6.106;2022-11-20T09:27:28;100378.06;;;19.50;50.24
58690;BME280;44470;53.206;-6.106;2022-11-20T09:29:55;100379.88;;;19.48;50.19
58690;BME280;44470;53.206;-6.106;2022-11-20T09:32:21;100387.88;;;19.50;50.50
58690;BME280;44470;53.206;-6.106;2022-11-20T09:34:46;100380.94;;;19.42;50.29
58690;BME280;44470;53.206;-6.106;2022-11-20T09:37:12;100389.66;;;19.49;50.11
58690;BME280;44470;53.206;-6.106;2022-11-20T09:39:37;100380.72;;;19.50;50.31
58690;BME280;44470;53.206;-6.106;2022-11-20T09:50:36;100398.56;;;19.48;50.25
58690;BME280;44470;53.206;-6.106;2022-11-20T09:56:12;100402.28;;;19.41;50.17
58690;BME280;44470;53.206;-6.106;2022-11-20T09:58:51;100413.72;;;19.48;50.17
58690;BME280;44470;53.206;-6.106;2022-11-20T10:01:34;100414.63;;;19.46;50.35
58690;BME280;44470;53.206;-6.106;2022-11-20T10:04:08;100407.63;;;19.42;50.33
58690;BME280;44470;53.206;-6.106;2022-11-20T10:06:47;100428.88;;;19.45;50.21
58690;BME280;44470;53.206;-6.106;2022-11-20T10:09:35;100430.66;;;19.45;50.28
58690;BME280;44470;53.206;-6.106;2022-11-20T10:12:14;100420.84;;;19.47;50.04
58690;BME280;44470;53.206;-6.106;2022-11-20T10:27:09;100427.06;;;19.48;50.47
58690;BME280;44470;53.206;-6.106;2022-11-20T10:29:47;100430.66;;;19.46;50.20
58690;BME280;44470;53.206;-6.106;2022-11-20T10:32:20;100422.72;;;19.42;50.22
58690;BME280;44470;53.206;-6.106;2022-11-20T10:35:36;100420.00;;;19.45;50.20
58690;BME280;44470;53.206;-6.106;2022-11-20T10:38:25;100415.50;;;19.47;49.96
58690;BME280;44470;53.206;-6.106;2022-11-20T10:41:21;100420.88;;;19.45;50.21
58690;BME280;44470;53.206;-6.106;2022-11-20T10:46:25;100415.47;;;19.49;50.33
58690;BME280;44470;53.206;-6.106;2022-11-20T10:49:20;100403.97;;;19.45;50.15
58690;BME280;44470;53.206;-6.106;2022-11-20T11:00:10;100422.63;;;19.46;50.33
58690;BME280;44470;53.206;-6.106;2022-11-20T11:02:51;100403.97;;;19.46;50.36
58690;BME280;44470;53.206;-6.106;2022-11-20T11:07:46;100431.66;;;19.41;50.15
58690;BME280;44470;53.206;-6.106;2022-11-20T11:10:45;100450.25;;;19.45;50.33
58690;BME280;44470;53.206;-6.106;2022-11-20T11:13:20;100456.44;;;19.48;50.25
58690;BME280;44470;53.206;-6.106;2022-11-20T11:15:45;100457.22;;;19.51;49.81
58690;BME280;44470;53.206;-6.106;2022-11-20T11:18:26;100461.75;;;19.48;50.29
58690;BME280;44470;53.206;-6.106;2022-11-20T11:21:02;100452.78;;;19.50;50.09
58690;BME280;44470;53.206;-6.106;2022-11-20T11:23:42;100461.63;;;19.52;49.91
58690;BME280;44470;53.206;-6.106;2022-11-20T11:26:23;100463.47;;;19.50;50.02
58690;BME280;44470;53.206;-6.106;2022-11-20T11:29:03;100483.91;;;19.51;50.16
58690;BME280;44470;53.206;-6.106;2022-11-20T11:31:47;100481.25;;;19.51;50.07
58690;BME280;44470;53.206;-6.106;2022-11-20T11:34:15;100476.66;;;19.56;50.03
58690;BME280;44470;53.206;-6.106;2022-11-20T11:37:00;100469.72;;;19.49;49.79
58690;BME280;44470;53.206;-6.106;2022-11-20T11:39:27;100474.91;;;19.57;49.77
58690;BME280;44470;53.206;-6.106;2022-11-20T11:41:55;100468.81;;;19.50;50.13
58690;BME280;44470;53.206;-6.106;2022-11-20T11:44:29;100473.34;;;19.46;50.35
58690;BME280;44470;53.206;-6.106;2022-11-20T11:47:36;100473.16;;;19.54;50.13
58690;BME280;44470;53.206;-6.106;2022-11-20T11:50:25;100459.13;;;19.46;50.20
58690;BME280;44470;53.206;-6.106;2022-11-20T11:53:13;100454.63;;;19.48;49.88
58690;BME280;44470;53.206;-6.106;2022-11-20T11:56:08;100447.56;;;19.45;50.05
58690;BME280;44470;53.206;-6.106;2022-11-20T11:59:10;100441.31;;;19.46;49.98
58690;BME280;44470;53.206;-6.106;2022-11-20T12:01:57;100444.16;;;19.39;49.91
58690;BME280;44470;53.206;-6.106;2022-11-20T12:04:46;100426.16;;;19.49;49.99
58690;BME280;44470;53.206;-6.106;2022-11-20T12:07:44;100439.56;;;19.45;50.21
58690;BME280;44470;53.206;-6.106;2022-11-20T12:10:56;100434.69;;;19.65;49.57
58690;BME280;44470;53.206;-6.106;2022-11-20T12:14:34;100430.50;;;19.53;50.04
58690;BME280;44470;53.206;-6.106;2022-11-20T12:16:39;100425.88;;;19.59;49.59
58690;BME280;44470;53.206;-6.106;2022-11-20T12:19:33;100415.34;;;19.53;49.71
58690;BME280;44470;53.206;-6.106;2022-11-20T12:22:23;100416.97;;;19.60;49.68
58690;BME280;44470;53.206;-6.106;2022-11-20T12:30:30;100392.09;;;19.58;49.55
58690;BME280;44470;53.206;-6.106;2022-11-20T12:38:58;100408.69;;;19.73;49.37
58690;BME280;44470;53.206;-6.106;2022-11-20T13:02:47;100453.41;;;19.61;49.24
58690;BME280;44470;53.206;-6.106;2022-11-20T13:08:43;100443.72;;;19.57;49.58
58690;BME280;44470;53.206;-6.106;2022-11-20T13:17:00;100453.19;;;19.72;49.33
58690;BME280;44470;53.206;-6.106;2022-11-20T13:19:53;100439.72;;;19.77;48.89
58690;BME280;44470;53.206;-6.106;2022-11-20T13:24:52;100439.44;;;19.89;48.44
58690;BME280;44470;53.206;-6.106;2022-11-20T13:27:20;100447.38;;;19.94;48.55
58690;BME280;44470;53.206;-6.106;2022-11-20T13:30:21;100464.25;;;19.95;48.65
58690;BME280;44470;53.206;-6.106;2022-11-20T13:32:55;100474.72;;;20.04;48.36
58690;BME280;44470;53.206;-6.106;2022-11-20T13:35:41;100460.66;;;19.97;48.25
58690;BME280;44470;53.206;-6.106;2022-11-20T13:38:16;100461.28;;;20.07;48.13
58690;BME280;44470;53.206;-6.106;2022-11-20T13:40:55;100471.09;;;20.07;48.16
58690;BME280;44470;53.206;-6.106;2022-11-20T13:43:47;100477.66;;;19.93;48.06
58690;BME280;44470;53.206;-6.106;2022-11-20T13:46:12;100476.53;;;20.02;48.09
58690;BME280;44470;53.206;-6.106;2022-11-20T13:48:46;100486.53;;;19.95;48.40
58690;BME280;44470;53.206;-6.106;2022-11-20T13:51:54;100476.53;;;20.03;47.98
58690;BME280;44470;53.206;-6.106;2022-11-20T13:59:58;100488.16;;;20.01;48.23
58690;BME280;44470;53.206;-6.106;2022-11-20T14:06:02;100503.09;;;20.08;47.97
58690;BME280;44470;53.206;-6.106;2022-11-20T14:09:33;100500.03;;;19.86;48.24
58690;BME280;44470;53.206;-6.106;2022-11-20T14:11:59;100481.78;;;19.67;48.82
58690;BME280;44470;53.206;-6.106;2022-11-20T14:14:53;100494.34;;;20.03;48.19
58690;BME280;44470;53.206;-6.106;2022-11-20T14:18:13;100503.25;;;20.02;47.97
58690;BME280;44470;53.206;-6.106;2022-11-20T14:21:23;100500.22;;;19.78;48.56
58690;BME280;44470;53.206;-6.106;2022-11-20T14:24:12;100498.88;;;19.99;48.29
58690;BME280;44470;53.206;-6.106;2022-11-20T14:26:58;100494.41;;;20.00;47.96
58690;BME280;44470;53.206;-6.106;2022-11-20T14:29:47;100506.84;;;20.01;47.83
58690;BME280;44470;53.206;-6.106;2022-11-20T14:32:38;100507.00;;;19.95;48.02
58690;BME280;44470;53.206;-6.106;2022-11-20T14:35:08;100507.81;;;19.98;48.18
58690;BME280;44470;53.206;-6.106;2022-11-20T14:38:01;100510.44;;;20.00;48.08
58690;BME280;44470;53.206;-6.106;2022-11-20T14:40:33;100510.66;;;19.91;48.29
58690;BME280;44470;53.206;-6.106;2022-11-20T14:43:18;100512.25;;;19.98;48.28
58690;BME280;44470;53.206;-6.106;2022-11-20T14:46:09;100510.66;;;19.91;48.23